Time,TemperatureF,DewpointF,PressureIn,WindDirection,WindDirectionDegrees,WindSpeedMPH,WindSpeedGustMPH,Humidity,HourlyPrecipIn,Conditions,Clouds,dailyrainin,SoftwareType,DateUTC
2013-05-23 00:00:00,32.0,30.0,-100.00,SSW,203,11.0,22.0,91,-99.99,,,-99.99,,2013-05-23 06:00:00,
2013-05-23 00:42:00,32.0,30.0,-100.00,SSW,203,11.0,22.0,91,-99.99,,,-99.99,,2013-05-23 06:42:00,
2013-05-23 00:52:00,32.0,30.0,-100.00,SSW,203,11.0,22.0,91,-99.99,,,-99.99,,2013-05-23 06:52:00,
2013-05-23 03:00:00,30.0,30.0,-100.00,South,186,10.0,25.0,97,-99.99,,,-99.99,,2013-05-23 09:00:00,
2013-05-23 03:42:00,30.0,30.0,-100.00,South,186,10.0,25.0,97,-99.99,,,-99.99,,2013-05-23 09:42:00,
2013-05-23 03:53:00,30.0,30.0,-100.00,South,186,10.0,25.0,97,-99.99,,,-99.99,,2013-05-23 09:53:00,
2013-05-23 04:00:00,30.0,29.0,-100.00,South,189,13.0,23.0,96,-99.99,,,-99.99,,2013-05-23 10:00:00,
2013-05-23 04:42:00,30.0,29.0,-100.00,South,189,13.0,23.0,96,-99.99,,,-99.99,,2013-05-23 10:42:00,
2013-05-23 04:52:00,30.0,29.0,-100.00,South,189,13.0,23.0,96,-99.99,,,-99.99,,2013-05-23 10:52:00,
2013-05-23 05:00:00,30.0,28.0,-100.00,SSW,193,15.0,24.0,95,-99.99,,,-99.99,,2013-05-23 11:00:00,
2013-05-23 05:42:00,30.0,28.0,-100.00,SSW,193,15.0,24.0,95,-99.99,,,-99.99,,2013-05-23 11:42:00,
2013-05-23 05:52:00,30.0,28.0,-100.00,SSW,193,15.0,24.0,95,-99.99,,,-99.99,,2013-05-23 11:52:00,
2013-05-23 06:00:00,30.0,29.0,-100.00,SSW,202,15.0,28.0,98,-99.99,,,-99.99,,2013-05-23 12:00:00,
2013-05-23 06:42:00,30.0,29.0,-100.00,SSW,202,15.0,28.0,98,-99.99,,,-99.99,,2013-05-23 12:42:00,
2013-05-23 06:52:00,30.0,29.0,-100.00,SSW,202,15.0,28.0,98,-99.99,,,-99.99,,2013-05-23 12:52:00,
2013-05-23 08:00:00,33.0,29.0,-100.00,SSW,206,15.0,23.0,83,-99.99,,,-99.99,,2013-05-23 14:00:00,
2013-05-23 08:42:00,33.0,29.0,-100.00,SSW,206,15.0,23.0,83,-99.99,,,-99.99,,2013-05-23 14:42:00,
2013-05-23 08:52:00,33.0,29.0,-100.00,SSW,206,15.0,23.0,83,-99.99,,,-99.99,,2013-05-23 14:52:00,
2013-05-23 09:00:00,37.0,27.0,-100.00,SW,222,15.0,21.0,65,-99.99,,,-99.99,,2013-05-23 15:00:00,
2013-05-23 09:43:00,37.0,27.0,-100.00,SW,222,15.0,21.0,65,-99.99,,,-99.99,,2013-05-23 15:43:00,
2013-05-23 09:53:00,37.0,27.0,-100.00,SW,222,15.0,21.0,65,-99.99,,,-99.99,,2013-05-23 15:53:00,
2013-05-23 11:00:00,43.0,21.0,-100.00,South,189,12.0,21.0,41,-99.99,,,-99.99,,2013-05-23 17:00:00,
2013-05-23 11:43:00,43.0,21.0,-100.00,South,189,12.0,21.0,41,-99.99,,,-99.99,,2013-05-23 17:43:00,
2013-05-23 11:53:00,43.0,21.0,-100.00,South,189,12.0,21.0,41,-99.99,,,-99.99,,2013-05-23 17:53:00,
2013-05-23 12:00:00,46.0,16.0,-100.00,SSW,198,16.0,30.0,29,-99.99,,,-99.99,,2013-05-23 18:00:00,
2013-05-23 12:42:00,46.0,16.0,-100.00,SSW,198,16.0,30.0,29,-99.99,,,-99.99,,2013-05-23 18:42:00,
2013-05-23 12:52:00,46.0,16.0,-100.00,SSW,198,16.0,30.0,29,-99.99,,,-99.99,,2013-05-23 18:52:00,
2013-05-23 16:00:00,47.0,26.0,-100.00,SSW,197,21.0,41.0,43,-99.99,,,-99.99,,2013-05-23 22:00:00,
2013-05-23 16:42:00,47.0,26.0,-100.00,SSW,197,21.0,41.0,43,-99.99,,,-99.99,,2013-05-23 22:42:00,
2013-05-23 16:52:00,47.0,26.0,-100.00,SSW,197,21.0,41.0,43,-99.99,,,-99.99,,2013-05-23 22:52:00,
2013-05-23 20:00:00,39.0,37.0,-100.00,SSW,209,11.0,20.0,94,-99.99,,,-99.99,,2013-05-24 02:00:00,
2013-05-23 20:42:00,39.0,37.0,-100.00,SSW,209,11.0,20.0,94,-99.99,,,-99.99,,2013-05-24 02:42:00,
2013-05-23 20:52:00,39.0,37.0,-100.00,SSW,209,11.0,20.0,94,-99.99,,,-99.99,,2013-05-24 02:52:00,
2013-05-23 22:00:00,37.0,36.0,-100.00,SW,229,11.0,18.0,94,-99.99,,,-99.99,,2013-05-24 04:00:00,
2013-05-23 22:42:00,37.0,36.0,-100.00,SW,229,11.0,18.0,94,-99.99,,,-99.99,,2013-05-24 04:42:00,
2013-05-23 22:53:00,37.0,36.0,-100.00,SW,229,11.0,18.0,94,-99.99,,,-99.99,,2013-05-24 04:53:00,